Time;durP1;ratioP1;P1;durP2;ratioP2;P2;SDS_P1;SDS_P2;PMS_P1;PMS_P2;Temp;Humidity;BMP_temperature;BMP_pressure;BME280_temperature;BME280_humidity;BME280_pressure;Samples;Min_cycle;Max_cycle;Signal;HPM_P1;HPM_P2
2022/03/03 00:00:35;;;;;;;155.20;65.50;;;;;;;-3.67;63.63;100824.76;52488;1271;1016164;-56
2022/03/03 00:03:11;;;;;;;156.10;66.90;;;;;;;-3.65;63.67;100823.39;52499;1271;1017010;-56
2022/03/03 00:05:42;;;;;;;148.90;65.60;;;;;;;-3.64;63.65;100825.59;52557;1271;1016388;-54
2022/03/03 00:08:14;;;;;;;162.60;66.90;;;;;;;-3.64;63.64;100828.08;52277;1271;1016538;-55
2022/03/03 00:10:46;;;;;;;150.50;68.10;;;;;;;-3.64;63.62;100826.60;52530;1271;1016086;-56
2022/03/03 00:13:17;;;;;;;154.70;67.10;;;;;;;-3.64;63.68;100832.60;52651;1271;1016291;-55
2022/03/03 00:15:48;;;;;;;156.20;67.20;;;;;;;-3.67;63.69;100825.46;52763;1271;1018340;-56
2022/03/03 00:18:21;;;;;;;165.60;69.50;;;;;;;-3.73;63.75;100822.25;52512;1271;1016661;-56
2022/03/03 00:20:52;;;;;;;154.40;68.00;;;;;;;-3.81;63.85;100822.61;52582;1271;1016529;-56
2022/03/03 00:23:24;;;;;;;157.20;70.40;;;;;;;-3.85;63.93;100817.33;52530;1271;1016745;-55
2022/03/03 00:25:55;;;;;;;166.70;67.30;;;;;;;-3.88;63.90;100814.48;52600;1271;1015867;-53
2022/03/03 00:28:27;;;;;;;169.20;73.00;;;;;;;-3.91;64.11;100814.59;52550;1271;1016399;-58
2022/03/03 00:30:58;;;;;;;184.40;74.60;;;;;;;-3.95;64.15;100812.21;52610;1271;1016429;-55
2022/03/03 00:33:30;;;;;;;186.40;74.50;;;;;;;-3.98;64.27;100811.69;52660;1271;1016237;-54
2022/03/03 00:36:02;;;;;;;165.00;70.40;;;;;;;-4.00;64.31;100804.87;52582;1271;1015858;-56
2022/03/03 00:38:33;;;;;;;170.40;73.00;;;;;;;-4.00;64.18;100806.27;52689;1271;1016682;-54
2022/03/03 00:41:05;;;;;;;161.40;68.70;;;;;;;-4.00;64.18;100801.61;52542;1271;1016157;-56
2022/03/03 00:43:36;;;;;;;172.30;75.10;;;;;;;-4.00;64.20;100804.34;52507;1271;1016326;-58
2022/03/03 00:46:08;;;;;;;176.10;73.90;;;;;;;-4.03;64.37;100801.48;52634;1271;1016674;-55
2022/03/03 00:48:40;;;;;;;179.40;75.60;;;;;;;-4.08;64.46;100800.55;52554;1271;1016331;-55
2022/03/03 00:51:11;;;;;;;169.70;72.10;;;;;;;-4.13;64.66;100802.43;52548;1271;1015916;-54
2022/03/03 00:53:43;;;;;;;164.40;68.40;;;;;;;-4.14;64.72;100796.02;52555;1271;1016128;-55
2022/03/03 00:56:14;;;;;;;181.60;74.10;;;;;;;-4.15;64.55;100803.41;52573;1271;1016310;-55
2022/03/03 00:58:46;;;;;;;169.30;69.00;;;;;;;-4.15;64.47;100804.52;52577;1271;1016458;-57
2022/03/03 01:01:19;;;;;;;175.10;70.60;;;;;;;-4.14;64.41;100802.19;52594;1271;1020093;-56
2022/03/03 01:03:50;;;;;;;169.10;70.80;;;;;;;-4.14;64.42;100808.20;52716;1271;1016270;-53
2022/03/03 01:06:23;;;;;;;171.00;75.20;;;;;;;-4.15;64.50;100802.33;52525;1271;1016571;-57
2022/03/03 01:08:55;;;;;;;168.20;70.50;;;;;;;-4.20;64.54;100796.34;52551;1271;1016606;-59
2022/03/03 01:11:27;;;;;;;169.50;69.00;;;;;;;-4.25;64.56;100794.30;52619;1271;1016236;-55
2022/03/03 01:13:59;;;;;;;155.60;68.70;;;;;;;-4.29;64.75;100802.17;52692;1271;1016295;-57
2022/03/03 01:16:30;;;;;;;154.20;65.80;;;;;;;-4.36;64.76;100804.33;52667;1271;1016887;-60
2022/03/03 01:19:02;;;;;;;154.50;65.50;;;;;;;-4.44;64.91;100800.70;52502;1271;1016468;-55
2022/03/03 01:21:33;;;;;;;157.00;63.30;;;;;;;-4.46;64.97;100795.21;52648;1271;1019992;-56
2022/03/03 01:24:05;;;;;;;158.70;63.60;;;;;;;-4.48;65.02;100793.23;52713;1271;1016762;-56
2022/03/03 01:26:37;;;;;;;150.90;64.10;;;;;;;-4.48;65.09;100791.52;52640;1271;1016234;-57
2022/03/03 01:29:10;;;;;;;145.70;61.00;;;;;;;-4.47;65.05;100791.84;52541;1271;1016866;-56
2022/03/03 01:31:42;;;;;;;141.80;58.10;;;;;;;-4.49;65.01;100791.27;52480;1271;1016603;-55
2022/03/03 01:34:14;;;;;;;141.30;60.80;;;;;;;-4.49;64.92;100798.20;52609;1271;1015890;-58
2022/03/03 01:36:46;;;;;;;138.00;57.60;;;;;;;-4.50;64.96;100801.06;52574;1271;1016658;-53
2022/03/03 01:39:18;;;;;;;140.80;59.30;;;;;;;-4.49;64.84;100795.39;52699;1271;1016515;-56
2022/03/03 01:41:50;;;;;;;149.30;60.70;;;;;;;-4.49;64.84;100789.63;52776;1271;1016549;-58
2022/03/03 01:44:22;;;;;;;136.30;59.50;;;;;;;-4.49;64.71;100781.38;52725;1271;1016525;-55
2022/03/03 01:46:55;;;;;;;138.50;59.80;;;;;;;-4.49;64.71;100778.03;52664;1271;1016679;-57
2022/03/03 01:49:28;;;;;;;139.70;58.90;;;;;;;-4.50;64.73;100767.82;52620;1271;1016514;-61
2022/03/03 01:51:59;;;;;;;147.10;61.00;;;;;;;-4.53;64.87;100768.70;52653;1271;1016715;-57
2022/03/03 01:54:30;;;;;;;136.90;57.90;;;;;;;-4.56;64.88;100765.06;52557;1271;1015963;-56
2022/03/03 01:57:02;;;;;;;139.70;58.90;;;;;;;-4.57;65.02;100764.75;52630;1271;1017059;-55
2022/03/03 01:59:34;;;;;;;142.50;56.00;;;;;;;-4.58;65.18;100763.10;52744;1271;1016375;-59
2022/03/03 02:02:07;;;;;;;138.30;56.10;;;;;;;-4.58;65.01;100764.96;52829;1272;1016563;-58
2022/03/03 02:04:39;;;;;;;147.90;60.30;;;;;;;-4.58;64.99;100764.34;52806;1271;1015937;-55
2022/03/03 02:07:11;;;;;;;146.40;60.70;;;;;;;-4.61;65.04;100755.17;52670;1271;1016384;-57
2022/03/03 02:09:43;;;;;;;153.90;60.60;;;;;;;-4.65;65.21;100747.55;52610;1271;1016532;-57
2022/03/03 02:12:15;;;;;;;158.10;63.80;;;;;;;-4.70;65.55;100744.08;52695;1271;1018313;-54
2022/03/03 02:14:49;;;;;;;162.00;65.00;;;;;;;-4.77;65.59;100737.57;52660;1271;1015921;-58
2022/03/03 02:17:21;;;;;;;164.40;66.60;;;;;;;-4.82;65.72;100738.71;52732;1271;1018291;-55
2022/03/03 02:19:52;;;;;;;163.40;67.50;;;;;;;-4.87;65.92;100734.27;52684;1271;1018646;-58
2022/03/03 02:22:25;;;;;;;174.90;71.90;;;;;;;-4.88;66.01;100727.64;52651;1271;1016208;-57
2022/03/03 02:24:56;;;;;;;164.30;72.20;;;;;;;-4.90;66.09;100730.11;52698;1271;1016881;-56
2022/03/03 02:27:29;;;;;;;192.30;76.80;;;;;;;-4.90;66.23;100729.09;52534;1271;1016916;-57
2022/03/03 02:30:01;;;;;;;180.50;75.50;;;;;;;-4.91;66.31;100728.92;52535;1271;1016430;-56
2022/03/03 02:32:32;;;;;;;187.50;77.40;;;;;;;-4.96;66.60;100724.17;52729;1271;1017230;-55
2022/03/03 02:35:04;;;;;;;196.80;78.60;;;;;;;-4.99;66.90;100721.55;52559;1271;1016125;-56
2022/03/03 02:37:38;;;;;;;202.50;81.10;;;;;;;-5.01;66.88;100719.64;52600;1271;1016479;-53
2022/03/03 02:40:13;;;;;;;180.50;78.30;;;;;;;-5.03;66.88;100716.73;52618;1271;1015528;-59
2022/03/03 02:42:44;;;;;;;198.30;82.20;;;;;;;-5.05;66.70;100719.90;52568;1271;1016538;-55
2022/03/03 02:45:17;;;;;;;186.50;77.30;;;;;;;-5.05;66.64;100716.55;52563;1271;1016618;-52
2022/03/03 02:47:50;;;;;;;199.50;77.90;;;;;;;-5.04;66.68;100715.71;52686;1271;1016300;-55
2022/03/03 02:50:24;;;;;;;195.80;80.50;;;;;;;-5.02;66.47;100712.70;52659;1271;1016191;-57
2022/03/03 02:52:58;;;;;;;218.40;85.40;;;;;;;-5.02;66.40;100707.73;52594;1271;1016352;-56
2022/03/03 02:55:31;;;;;;;186.50;77.00;;;;;;;-5.02;66.42;100702.44;52820;1271;1016407;-55
2022/03/03 02:58:02;;;;;;;185.10;79.10;;;;;;;-5.00;66.26;100705.37;52746;1271;1016814;-55
2022/03/03 03:00:39;;;;;;;186.00;77.30;;;;;;;-4.98;66.24;100705.45;52601;1271;1016328;-56
2022/03/03 03:03:10;;;;;;;187.00;76.30;;;;;;;-4.98;66.17;100702.95;52719;1271;1016110;-58
2022/03/03 03:05:42;;;;;;;185.60;75.80;;;;;;;-4.97;66.08;100703.16;52609;1271;1016671;-55
2022/03/03 03:08:14;;;;;;;181.80;75.90;;;;;;;-4.96;66.21;100705.98;52848;1260;1016848;-56
2022/03/03 03:10:46;;;;;;;190.10;74.40;;;;;;;-4.96;66.23;100706.98;52491;1273;1016802;-56
2022/03/03 03:13:17;;;;;;;188.00;74.10;;;;;;;-4.96;66.28;100703.17;52508;1273;1016311;-57
2022/03/03 03:15:49;;;;;;;184.70;74.90;;;;;;;-4.95;66.13;100701.39;52515;1273;1016426;-55
2022/03/03 03:18:22;;;;;;;186.00;72.70;;;;;;;-4.95;66.23;100701.56;52654;1273;1016557;-57
2022/03/03 03:20:54;;;;;;;175.80;69.10;;;;;;;-4.98;66.30;100691.14;53322;1273;1016465;-56
2022/03/03 03:23:26;;;;;;;194.60;73.20;;;;;;;-5.02;66.41;100686.02;54510;1273;1016092;-57
2022/03/03 03:25:57;;;;;;;185.70;72.20;;;;;;;-5.06;66.39;100683.32;54515;1273;1016135;-58
2022/03/03 03:28:30;;;;;;;170.00;70.90;;;;;;;-5.08;66.46;100680.95;53941;1272;1015876;-57
2022/03/03 03:31:01;;;;;;;174.70;69.50;;;;;;;-5.07;66.39;100680.20;52542;1273;1016714;-56
2022/03/03 03:33:33;;;;;;;173.80;74.70;;;;;;;-5.07;66.44;100679.70;52589;1273;1017654;-57
2022/03/03 03:36:04;;;;;;;188.80;70.70;;;;;;;-5.10;66.55;100670.02;52437;1273;1019951;-57
2022/03/03 03:38:36;;;;;;;183.00;72.60;;;;;;;-5.13;66.56;100666.24;52498;1273;1016693;-57
2022/03/03 03:41:09;;;;;;;174.50;71.80;;;;;;;-5.16;66.70;100670.09;52517;1273;1016306;-57
2022/03/03 03:43:41;;;;;;;174.80;71.20;;;;;;;-5.18;66.94;100668.64;52443;1272;1016352;-57
2022/03/03 03:46:12;;;;;;;172.60;73.00;;;;;;;-5.21;67.02;100669.44;52463;1273;1016617;-57
2022/03/03 03:48:43;;;;;;;173.40;71.70;;;;;;;-5.24;67.19;100666.84;52576;1273;1016342;-57
2022/03/03 03:51:16;;;;;;;179.30;71.10;;;;;;;-5.23;67.35;100672.90;52498;1273;1016142;-57
2022/03/03 03:53:48;;;;;;;188.50;75.10;;;;;;;-5.24;67.47;100672.11;52758;1273;1016501;-57
2022/03/03 03:56:19;;;;;;;196.40;76.70;;;;;;;-5.26;67.64;100668.21;52672;1273;1019148;-57
2022/03/03 03:58:50;;;;;;;188.70;76.00;;;;;;;-5.26;67.89;100669.38;52519;1273;1016849;-56
2022/03/03 04:01:22;;;;;;;185.40;73.20;;;;;;;-5.24;68.12;100662.16;52551;1271;1016109;-57
2022/03/03 04:03:53;;;;;;;176.40;71.90;;;;;;;-5.21;68.09;100661.44;52505;1273;1016512;-57
2022/03/03 04:06:26;;;;;;;180.20;75.00;;;;;;;-5.18;68.22;100659.55;52481;1273;1016766;-57
2022/03/03 04:08:57;;;;;;;180.90;72.30;;;;;;;-5.13;68.29;100659.72;52529;1273;1016455;-56
2022/03/03 04:11:29;;;;;;;193.30;75.80;;;;;;;-5.10;68.45;100658.27;52462;1273;1019657;-57
2022/03/03 04:14:01;;;;;;;177.60;73.20;;;;;;;-5.08;68.62;100652.10;52472;1274;1016639;-57
2022/03/03 04:16:32;;;;;;;169.80;69.30;;;;;;;-5.03;68.68;100650.61;52563;1274;1016718;-55
2022/03/03 04:19:05;;;;;;;184.40;70.20;;;;;;;-5.00;68.97;100649.11;52521;1273;1017364;-56
2022/03/03 04:21:36;;;;;;;176.40;70.50;;;;;;;-4.98;69.32;100648.84;52548;1273;1016472;-56
2022/03/03 04:24:10;;;;;;;181.20;70.80;;;;;;;-4.95;69.52;100650.52;52436;1274;1015879;-56
2022/03/03 04:26:41;;;;;;;179.30;71.20;;;;;;;-4.92;69.63;100652.81;52464;1273;1016308;-59
2022/03/03 04:29:12;;;;;;;181.60;71.70;;;;;;;-4.88;69.72;100647.27;52573;1273;1018334;-56
2022/03/03 04:31:44;;;;;;;165.90;70.70;;;;;;;-4.86;69.73;100649.79;52500;1274;1016328;-56
2022/03/03 04:34:16;;;;;;;171.10;72.80;;;;;;;-4.82;69.98;100645.81;52516;1273;1015887;-56
2022/03/03 04:36:47;;;;;;;183.50;72.90;;;;;;;-4.77;70.07;100642.16;52636;1273;1016418;-56
2022/03/03 04:39:18;;;;;;;177.40;71.30;;;;;;;-4.73;70.21;100636.46;52596;1273;1016626;-57
2022/03/03 04:41:50;;;;;;;182.20;73.50;;;;;;;-4.68;70.49;100631.25;52446;1273;1016786;-56
2022/03/03 04:44:21;;;;;;;191.00;77.50;;;;;;;-4.62;70.70;100620.73;52461;1274;1016589;-57
2022/03/03 04:46:53;;;;;;;181.80;76.80;;;;;;;-4.57;70.76;100617.48;52553;1273;1016489;-58
2022/03/03 04:49:25;;;;;;;186.80;76.00;;;;;;;-4.53;70.66;100619.63;52633;1272;1016387;-56
2022/03/03 04:51:58;;;;;;;183.80;72.70;;;;;;;-4.49;70.72;100621.95;52555;1273;1016806;-58
2022/03/03 04:54:29;;;;;;;181.70;73.60;;;;;;;-4.46;70.90;100613.02;52470;1273;1017086;-58
2022/03/03 04:57:01;;;;;;;174.50;72.70;;;;;;;-4.42;71.10;100613.55;52519;1274;1016616;-56
2022/03/03 04:59:32;;;;;;;181.70;73.30;;;;;;;-4.38;71.19;100613.45;52563;1273;1016626;-57
2022/03/03 05:02:04;;;;;;;176.30;72.30;;;;;;;-4.35;71.14;100616.13;52442;1273;1016410;-57
2022/03/03 05:04:35;;;;;;;178.80;74.30;;;;;;;-4.30;71.02;100619.68;52622;1273;1016182;-59
2022/03/03 05:07:07;;;;;;;181.70;74.80;;;;;;;-4.25;71.12;100620.70;52573;1273;1016338;-57
2022/03/03 05:09:39;;;;;;;174.50;72.70;;;;;;;-4.21;71.04;100623.71;52642;1273;1015575;-58
2022/03/03 05:12:12;;;;;;;172.40;73.40;;;;;;;-4.15;71.36;100626.91;52527;1273;1015975;-59
2022/03/03 05:14:43;;;;;;;175.60;72.60;;;;;;;-4.13;71.28;100627.41;52570;1273;1017658;-57
2022/03/03 05:17:15;;;;;;;174.60;72.40;;;;;;;-4.10;71.36;100621.83;52492;1273;1019156;-59
2022/03/03 05:19:46;;;;;;;172.30;71.80;;;;;;;-4.06;71.20;100631.45;52454;1273;1016702;-58
2022/03/03 05:22:17;;;;;;;164.90;70.60;;;;;;;-4.04;71.20;100634.60;52512;1273;1016391;-58
2022/03/03 05:24:50;;;;;;;184.60;73.70;;;;;;;-4.01;71.18;100632.06;52533;1273;1016990;-58
2022/03/03 05:27:22;;;;;;;174.80;70.00;;;;;;;-3.97;71.19;100631.33;52528;1273;1016622;-57
2022/03/03 05:29:54;;;;;;;169.50;70.50;;;;;;;-3.93;71.24;100634.95;52492;1273;1016704;-61
2022/03/03 05:32:25;;;;;;;172.40;72.40;;;;;;;-3.91;71.32;100633.73;52590;1273;1016338;-57
2022/03/03 05:34:56;;;;;;;179.50;76.80;;;;;;;-3.87;71.41;100630.04;52485;1273;1016650;-57
2022/03/03 05:37:28;;;;;;;177.10;74.80;;;;;;;-3.83;71.78;100631.02;52595;1273;1018948;-59
2022/03/03 05:39:59;;;;;;;189.50;77.60;;;;;;;-3.79;72.07;100630.75;52750;1273;1017062;-56
2022/03/03 05:42:30;;;;;;;177.20;75.30;;;;;;;-3.73;71.94;100628.33;52819;1273;1016027;-57
2022/03/03 05:45:02;;;;;;;169.50;74.30;;;;;;;-3.70;71.85;100627.34;52819;1273;1015926;-56
2022/03/03 05:47:34;;;;;;;174.90;74.00;;;;;;;-3.69;72.07;100630.30;52590;1273;1016400;-54
2022/03/03 05:50:07;;;;;;;173.00;74.30;;;;;;;-3.65;71.89;100627.86;52802;1274;1016580;-59
2022/03/03 05:52:39;;;;;;;183.30;75.90;;;;;;;-3.62;71.90;100621.90;52927;1272;1016624;-57
2022/03/03 05:55:12;;;;;;;167.80;72.80;;;;;;;-3.59;71.85;100612.48;52766;1273;1019265;-59
2022/03/03 05:57:49;;;;;;;176.00;72.40;;;;;;;-3.58;72.10;100609.46;52766;1273;1016719;-55
2022/03/03 06:00:21;;;;;;;175.50;77.50;;;;;;;-3.54;72.28;100610.20;52983;1273;1015967;-58
2022/03/03 06:02:55;;;;;;;193.00;77.10;;;;;;;-3.48;72.41;100608.48;52886;1273;1016484;-58
2022/03/03 06:05:29;;;;;;;175.10;74.40;;;;;;;-3.43;72.39;100605.77;52916;1271;1016495;-60
2022/03/03 06:08:05;;;;;;;166.20;75.70;;;;;;;-3.39;72.34;100607.53;52762;1273;1016640;-59
2022/03/03 06:10:41;;;;;;;175.90;73.90;;;;;;;-3.35;72.42;100600.63;52906;1273;1016026;-58
2022/03/03 06:13:21;;;;;;;185.80;77.30;;;;;;;-3.29;72.50;100592.96;52782;1273;1016504;-57
2022/03/03 06:15:53;;;;;;;181.90;75.80;;;;;;;-3.26;72.83;100588.94;52586;1273;1016632;-57
2022/03/03 06:18:30;;;;;;;169.30;76.20;;;;;;;-3.23;72.83;100591.60;52459;1273;1016234;-57
2022/03/03 06:21:01;;;;;;;179.30;78.00;;;;;;;-3.19;72.91;100585.16;52707;1273;1016177;-57
2022/03/03 06:23:34;;;;;;;179.10;76.00;;;;;;;-3.14;73.03;100587.69;52739;1273;1016601;-58
2022/03/03 06:26:07;;;;;;;178.20;77.40;;;;;;;-3.11;73.14;100590.30;52999;1273;1018482;-60
2022/03/03 06:28:39;;;;;;;180.60;77.10;;;;;;;-3.04;73.26;100588.88;52645;1273;1016773;-58
2022/03/03 06:31:10;;;;;;;193.20;80.50;;;;;;;-2.98;73.46;100591.17;52718;1273;1016558;-58
2022/03/03 06:33:43;;;;;;;183.50;82.40;;;;;;;-2.92;73.49;100588.26;52615;1273;1018517;-56
2022/03/03 06:36:15;;;;;;;187.00;80.50;;;;;;;-2.86;73.58;100591.97;52654;1272;1016639;-58
2022/03/03 06:38:46;;;;;;;203.50;84.70;;;;;;;-2.81;73.45;100588.64;52806;1273;1015916;-57
2022/03/03 06:41:18;;;;;;;206.90;86.30;;;;;;;-2.75;73.56;100588.68;52824;1273;1016108;-57
2022/03/03 06:43:50;;;;;;;206.40;81.30;;;;;;;-2.71;73.72;100590.12;52938;1273;1016423;-58
2022/03/03 06:46:22;;;;;;;206.00;88.30;;;;;;;-2.66;73.87;100595.52;52874;1273;1016716;-58
2022/03/03 06:48:53;;;;;;;182.00;80.80;;;;;;;-2.61;73.90;100588.29;52726;1273;1015823;-58
2022/03/03 06:51:28;;;;;;;195.70;83.00;;;;;;;-2.57;74.03;100592.70;52827;1273;1020190;-57
2022/03/03 06:54:04;;;;;;;188.50;81.70;;;;;;;-2.52;73.95;100593.98;52802;1273;1016604;-57
2022/03/03 06:56:42;;;;;;;198.10;85.10;;;;;;;-2.46;74.02;100592.20;52951;1273;1016292;-57
2022/03/03 06:59:16;;;;;;;165.10;74.40;;;;;;;-2.41;74.22;100594.96;52945;1272;1015798;-57
2022/03/03 07:01:49;;;;;;;178.80;78.80;;;;;;;-2.37;74.25;100585.55;52903;1273;1016273;-59
2022/03/03 07:04:22;;;;;;;180.30;78.10;;;;;;;-2.33;74.44;100580.71;52779;1273;1016755;-59
2022/03/03 07:06:54;;;;;;;172.60;77.20;;;;;;;-2.28;74.40;100577.30;52641;1273;1017224;-58
2022/03/03 07:09:25;;;;;;;174.40;72.70;;;;;;;-2.22;74.39;100585.91;52503;1273;1016656;-56
2022/03/03 07:11:59;;;;;;;169.80;77.50;;;;;;;-2.16;74.46;100587.98;52665;1273;1016624;-57
2022/03/03 07:14:32;;;;;;;170.10;75.80;;;;;;;-2.10;74.37;100583.54;52633;1273;1016334;-57
2022/03/03 07:17:09;;;;;;;169.20;74.80;;;;;;;-2.03;74.49;100587.77;52546;1273;1019794;-57
2022/03/03 07:19:56;;;;;;;180.80;75.80;;;;;;;-1.97;74.36;100584.05;53035;1273;1016697;-58
2022/03/03 07:22:37;;;;;;;175.90;79.10;;;;;;;-1.91;74.39;100586.41;52756;1273;1016378;-57
2022/03/03 07:25:13;;;;;;;165.30;72.30;;;;;;;-1.83;74.38;100588.23;52612;1273;1016977;-57
2022/03/03 07:27:46;;;;;;;166.60;73.10;;;;;;;-1.75;74.34;100597.58;52593;1273;1016392;-57
2022/03/03 07:30:19;;;;;;;169.50;77.00;;;;;;;-1.69;74.32;100601.25;52631;1273;1016736;-57
2022/03/03 07:32:56;;;;;;;170.30;76.40;;;;;;;-1.62;74.26;100600.73;52508;1273;1018137;-56
2022/03/03 07:35:28;;;;;;;169.10;75.20;;;;;;;-1.55;74.26;100602.53;52626;1273;1016653;-57
2022/03/03 07:38:02;;;;;;;168.10;72.60;;;;;;;-1.48;74.31;100603.57;52715;1273;1016550;-57
2022/03/03 07:40:34;;;;;;;168.40;72.10;;;;;;;-1.42;74.30;100606.46;52561;1273;1016799;-57
2022/03/03 07:43:06;;;;;;;155.80;71.70;;;;;;;-1.35;74.19;100607.95;52546;1273;1016395;-58
2022/03/03 07:45:38;;;;;;;157.60;71.90;;;;;;;-1.28;74.03;100605.70;52521;1273;1016442;-57
2022/03/03 07:48:11;;;;;;;160.00;70.20;;;;;;;-1.22;74.06;100606.40;52549;1273;1016624;-57
2022/03/03 07:50:43;;;;;;;153.40;69.20;;;;;;;-1.16;74.08;100608.98;52537;1273;1015968;-57
2022/03/03 07:53:16;;;;;;;152.30;69.20;;;;;;;-1.10;74.01;100609.61;52649;1273;1016634;-58
2022/03/03 07:55:50;;;;;;;155.50;72.60;;;;;;;-1.05;73.81;100611.03;52614;1273;1016408;-57
2022/03/03 07:58:27;;;;;;;157.50;67.50;;;;;;;-1.00;73.60;100608.05;52582;1273;1015993;-57
2022/03/03 08:01:03;;;;;;;156.00;68.50;;;;;;;-0.96;73.54;100605.85;52585;1273;1016408;-57
2022/03/03 08:03:36;;;;;;;159.70;71.80;;;;;;;-0.93;73.76;100599.13;52585;1273;1016625;-57
2022/03/03 08:06:08;;;;;;;148.80;66.10;;;;;;;-0.89;73.59;100601.48;52691;1273;1016066;-57
2022/03/03 08:08:41;;;;;;;140.20;67.80;;;;;;;-0.87;73.47;100603.41;52553;1273;1017927;-57
2022/03/03 08:11:19;;;;;;;154.80;69.60;;;;;;;-0.85;73.41;100605.23;52577;1273;1016449;-57
2022/03/03 08:13:52;;;;;;;157.40;67.90;;;;;;;-0.85;73.28;100603.25;52560;1273;1020189;-58
2022/03/03 08:16:24;;;;;;;159.20;71.50;;;;;;;-0.83;73.31;100598.10;52640;1273;1017075;-56
2022/03/03 08:18:57;;;;;;;151.60;70.40;;;;;;;-0.82;73.25;100598.40;52649;1273;1018202;-57
2022/03/03 08:21:30;;;;;;;146.20;67.50;;;;;;;-0.82;73.31;100597.48;52594;1273;1016692;-57
2022/03/03 08:24:06;;;;;;;162.70;70.70;;;;;;;-0.81;73.33;100600.05;52582;1273;1016264;-57
2022/03/03 08:26:42;;;;;;;153.80;66.80;;;;;;;-0.80;73.40;100601.61;52506;1273;1015790;-58
2022/03/03 08:29:14;;;;;;;157.00;70.10;;;;;;;-0.76;73.44;100602.63;52632;1273;1016324;-57
2022/03/03 08:31:50;;;;;;;164.10;68.20;;;;;;;-0.73;73.40;100599.73;52609;1273;1017136;-58
2022/03/03 08:34:29;;;;;;;140.20;66.70;;;;;;;-0.67;73.58;100598.55;52651;1273;1016279;-58
2022/03/03 08:37:03;;;;;;;137.50;62.60;;;;;;;-0.60;73.64;100598.60;52621;1273;1016237;-57
2022/03/03 08:39:39;;;;;;;136.30;60.70;;;;;;;-0.52;73.68;100601.73;52476;1273;1016516;-58
2022/03/03 08:42:13;;;;;;;116.30;54.40;;;;;;;-0.42;73.19;100602.16;52574;1273;1016649;-57
2022/03/03 08:44:47;;;;;;;112.80;53.70;;;;;;;-0.33;72.62;100603.55;52847;1273;1016101;-57
2022/03/03 08:47:21;;;;;;;105.80;46.00;;;;;;;-0.26;72.30;100595.62;52636;1273;1016665;-58
2022/03/03 08:50:00;;;;;;;93.30;43.80;;;;;;;-0.17;71.86;100593.94;52692;1273;1017289;-58
2022/03/03 08:52:32;;;;;;;99.00;43.40;;;;;;;-0.07;71.55;100588.25;52735;1273;1017503;-57
2022/03/03 08:55:05;;;;;;;93.30;41.90;;;;;;;0.04;71.31;100588.35;52574;1273;1016185;-59
2022/03/03 08:57:44;;;;;;;84.40;38.10;;;;;;;0.14;71.05;100589.33;52619;1273;1016224;-59
2022/03/03 09:00:18;;;;;;;91.00;40.90;;;;;;;0.24;70.88;100587.08;52588;1273;1016236;-58
2022/03/03 09:02:50;;;;;;;83.80;36.00;;;;;;;0.33;70.71;100583.48;52729;1273;1016976;-59
2022/03/03 09:05:24;;;;;;;84.10;38.30;;;;;;;0.46;70.17;100584.59;52627;1273;1016320;-58
2022/03/03 09:07:57;;;;;;;84.00;36.40;;;;;;;0.58;70.02;100584.13;52699;1273;1020486;-58
2022/03/03 09:10:30;;;;;;;83.80;36.50;;;;;;;0.68;69.41;100585.45;52770;1273;1018113;-56
2022/03/03 09:13:02;;;;;;;88.00;38.00;;;;;;;0.79;69.50;100582.94;52834;1273;1016338;-60
2022/03/03 09:15:35;;;;;;;82.50;37.70;;;;;;;0.86;69.19;100584.30;52978;1273;1016398;-60
2022/03/03 09:18:07;;;;;;;87.10;37.10;;;;;;;0.92;68.99;100582.44;52901;1273;1015817;-58
2022/03/03 09:20:39;;;;;;;80.10;33.50;;;;;;;0.99;68.75;100578.06;52878;1273;1016355;-59
2022/03/03 09:23:10;;;;;;;79.60;34.10;;;;;;;1.09;68.77;100577.98;52886;1273;1016083;-61
2022/03/03 09:25:43;;;;;;;85.40;39.10;;;;;;;1.17;68.43;100567.44;52903;1271;1016016;-60
2022/03/03 09:28:15;;;;;;;79.70;36.30;;;;;;;1.24;68.28;100563.52;52907;1273;1016689;-60
2022/03/03 09:30:49;;;;;;;81.50;34.30;;;;;;;1.29;68.10;100562.23;52895;1273;1015910;-59
2022/03/03 09:33:21;;;;;;;69.30;31.90;;;;;;;1.34;67.58;100558.86;52954;1273;1018279;-60
2022/03/03 09:35:53;;;;;;;74.00;33.80;;;;;;;1.43;67.34;100553.02;52882;1273;1016370;-58
2022/03/03 09:38:25;;;;;;;68.70;28.80;;;;;;;1.51;67.20;100551.92;52806;1273;1016379;-59
2022/03/03 09:40:57;;;;;;;72.70;30.50;;;;;;;1.60;66.46;100551.58;52716;1273;1016131;-58
2022/03/03 09:43:30;;;;;;;70.30;30.70;;;;;;;1.69;66.49;100546.68;53004;1273;1015752;-59
2022/03/03 09:46:02;;;;;;;60.30;25.20;;;;;;;1.76;65.62;100546.98;52852;1273;1016236;-59
2022/03/03 09:48:33;;;;;;;61.30;26.00;;;;;;;1.85;64.88;100543.89;52918;1273;1016311;-59
2022/03/03 09:51:07;;;;;;;55.30;21.30;;;;;;;1.94;64.56;100549.98;52833;1273;1016404;-57
2022/03/03 09:53:42;;;;;;;50.70;21.20;;;;;;;2.05;63.78;100549.92;52601;1273;1016731;-58
2022/03/03 09:56:15;;;;;;;50.70;22.50;;;;;;;2.18;63.39;100553.52;52628;1273;1016245;-58
2022/03/03 09:58:46;;;;;;;48.50;23.00;;;;;;;2.28;63.20;100553.70;52606;1273;1016562;-58
2022/03/03 10:01:19;;;;;;;50.50;21.20;;;;;;;2.37;62.99;100550.34;52593;1273;1016705;-58
2022/03/03 10:03:51;;;;;;;50.60;22.90;;;;;;;2.46;62.43;100550.42;52702;1273;1016399;-61
2022/03/03 10:06:26;;;;;;;46.60;19.10;;;;;;;2.53;62.64;100547.98;52553;1273;1016200;-58
2022/03/03 10:09:01;;;;;;;46.30;17.90;;;;;;;2.65;61.69;100550.45;52660;1272;1016212;-58
2022/03/03 10:11:40;;;;;;;49.60;20.10;;;;;;;2.75;61.70;100552.66;52696;1273;1016101;-62
2022/03/03 10:14:12;;;;;;;46.20;19.80;;;;;;;2.81;61.37;100555.39;52680;1273;1016433;-59
2022/03/03 10:16:51;;;;;;;46.60;18.90;;;;;;;2.85;61.16;100550.06;52677;1273;1016669;-59
2022/03/03 10:19:23;;;;;;;49.80;19.90;;;;;;;2.90;60.96;100552.65;52536;1273;1016372;-59
2022/03/03 10:21:55;;;;;;;44.70;18.70;;;;;;;2.98;60.36;100552.53;52506;1273;1016630;-59
2022/03/03 10:24:29;;;;;;;42.40;17.20;;;;;;;3.05;60.60;100554.37;52678;1273;1016125;-60
2022/03/03 10:27:03;;;;;;;45.40;18.50;;;;;;;3.16;59.96;100550.77;52739;1273;1016444;-60
2022/03/03 10:29:37;;;;;;;45.70;21.00;;;;;;;3.23;60.52;100546.30;52669;1273;1018906;-60
2022/03/03 10:32:22;;;;;;;43.30;19.00;;;;;;;3.30;60.27;100544.70;52586;1273;1016527;-58
2022/03/03 10:34:55;;;;;;;45.20;18.80;;;;;;;3.37;59.92;100540.78;52575;1273;1016789;-59
2022/03/03 10:37:27;;;;;;;41.90;16.90;;;;;;;3.45;59.93;100545.91;52591;1273;1016487;-59
2022/03/03 10:40:01;;;;;;;44.50;18.60;;;;;;;3.57;59.70;100547.33;52568;1273;1016853;-59
2022/03/03 10:42:32;;;;;;;53.90;21.00;;;;;;;3.62;59.53;100544.06;52682;1273;1016404;-59
2022/03/03 10:45:12;;;;;;;47.10;20.50;;;;;;;3.65;59.25;100541.80;52541;1273;1016023;-60
2022/03/03 10:47:59;;;;;;;43.10;18.90;;;;;;;3.73;59.15;100541.88;52624;1273;1016302;-60
2022/03/03 10:50:47;;;;;;;40.10;17.10;;;;;;;3.80;59.33;100536.61;52645;1273;1016632;-60
2022/03/03 10:53:21;;;;;;;45.60;20.70;;;;;;;3.89;57.28;100538.15;52650;1273;1016051;-59
2022/03/03 10:56:05;;;;;;;42.20;18.70;;;;;;;3.95;57.74;100529.35;52706;1273;1016078;-58
2022/03/03 10:58:52;;;;;;;40.40;17.20;;;;;;;3.98;58.01;100526.44;52635;1273;1016251;-59
2022/03/03 11:01:26;;;;;;;40.40;18.00;;;;;;;4.08;57.86;100528.90;52626;1273;1016452;-61
2022/03/03 11:04:00;;;;;;;40.20;17.70;;;;;;;4.13;57.15;100525.34;52778;1273;1016018;-60
2022/03/03 11:06:34;;;;;;;44.80;19.90;;;;;;;4.11;56.67;100520.88;52877;1270;1016517;-61
2022/03/03 11:09:07;;;;;;;45.10;20.50;;;;;;;4.14;57.49;100514.40;52851;1273;1016177;-61
2022/03/03 11:11:39;;;;;;;42.80;16.10;;;;;;;4.19;57.53;100513.11;52840;1273;1016700;-61
2022/03/03 11:14:12;;;;;;;43.60;19.10;;;;;;;4.25;55.56;100515.66;52707;1273;1016438;-61